createdAt,value
2018-11-20T00:01:30.037Z,35.15
2018-11-20T00:04:18.314Z,37.85
2018-11-20T00:07:09.445Z,37.50
2018-11-20T00:09:57.664Z,36.15
2018-11-20T00:12:39.255Z,37.38
2018-11-20T00:15:20.336Z,33.30
2018-11-20T00:18:23.874Z,32.53
2018-11-20T00:21:12.104Z,35.08
2018-11-20T00:23:59.095Z,36.08
2018-11-20T00:26:59.343Z,31.40
2018-11-20T00:29:45.017Z,36.98
2018-11-20T00:32:31.071Z,15.00
2018-11-20T00:35:18.061Z,32.88
2018-11-20T00:38:21.419Z,29.07
2018-11-20T00:41:13.020Z,34.73
2018-11-20T00:43:52.675Z,33.83
2018-11-20T00:46:40.989Z,32.55
2018-11-20T00:49:38.891Z,38.25
2018-11-20T00:52:42.238Z,35.43
2018-11-20T00:56:04.036Z,25.68
2018-11-20T00:58:44.195Z,36.55
2018-11-20T01:01:31.408Z,37.58
2018-11-20T01:04:23.364Z,30.65
2018-11-20T01:07:07.701Z,33.63
2018-11-20T01:09:50.625Z,37.60
2018-11-20T01:12:31.789Z,33.20
2018-11-20T01:15:09.290Z,33.23
2018-11-20T01:18:12.575Z,35.05
2018-11-20T01:20:53.688Z,31.75
2018-11-20T01:23:31.864Z,31.30
2018-11-20T01:26:16.025Z,34.75
2018-11-20T01:29:12.958Z,36.68
2018-11-20T01:32:03.957Z,28.92
2018-11-20T01:35:00.112Z,31.35
2018-11-20T01:37:47.137Z,30.30
2018-11-20T01:40:33.883Z,33.50
2018-11-20T01:43:24.763Z,32.90
2018-11-20T01:46:12.954Z,33.18
2018-11-20T01:48:59.842Z,30.37
2018-11-20T01:51:55.338Z,29.05
2018-11-20T01:54:41.817Z,39.20
2018-11-20T01:57:28.892Z,36.25
2018-11-20T02:00:14.824Z,32.75
2018-11-20T02:03:01.593Z,36.70
2018-11-20T02:05:55.546Z,33.13
2018-11-20T02:08:41.642Z,35.63
2018-11-20T02:11:44.975Z,33.33
2018-11-20T02:14:50.573Z,32.25
2018-11-20T02:18:04.535Z,25.90
2018-11-20T02:20:51.740Z,42.90
2018-11-20T02:23:37.339Z,32.50
2018-11-20T02:26:25.771Z,33.98
2018-11-20T02:29:10.451Z,38.73
2018-11-20T02:31:57.353Z,31.15
2018-11-20T02:34:44.378Z,36.65
2018-11-20T02:37:31.432Z,35.38
2018-11-20T02:40:18.386Z,28.45
2018-11-20T02:43:18.422Z,31.52
2018-11-20T02:46:04.021Z,24.02
2018-11-20T02:48:54.814Z,31.07
2018-11-20T02:51:43.886Z,32.00
2018-11-20T02:54:32.131Z,33.75
2018-11-20T02:57:19.311Z,32.58
2018-11-20T03:00:12.719Z,35.70
2018-11-20T03:02:59.893Z,29.40
2018-11-20T03:05:49.146Z,28.15
2018-11-20T03:08:44.811Z,35.20
2018-11-20T03:11:22.437Z,31.55
2018-11-20T03:14:16.487Z,33.13
2018-11-20T03:17:02.507Z,30.45
2018-11-20T03:19:49.358Z,27.40
2018-11-20T03:22:40.404Z,29.02
2018-11-20T03:25:55.678Z,28.85
2018-11-20T03:28:41.579Z,33.70
2018-11-20T03:31:21.361Z,41.42
2018-11-20T03:34:10.175Z,30.25
2018-11-20T03:36:56.855Z,32.53
2018-11-20T03:39:44.062Z,34.15
2018-11-20T03:42:31.110Z,34.75
2018-11-20T03:45:19.898Z,29.42
2018-11-20T03:48:26.367Z,27.87
2018-11-20T03:51:20.901Z,30.92
2018-11-20T03:54:07.635Z,30.40
2018-11-20T03:56:45.609Z,31.15
2018-11-20T03:59:39.603Z,30.65
2018-11-20T04:02:33.743Z,32.63
2018-11-20T04:05:10.103Z,27.93
2018-11-20T04:08:04.109Z,28.52
2018-11-20T04:10:42.023Z,28.98
2018-11-20T04:13:28.614Z,32.70
2018-11-20T04:16:09.502Z,30.20
2018-11-20T04:18:57.752Z,31.87
2018-11-20T04:21:45.390Z,29.72
2018-11-20T04:24:45.683Z,30.40
2018-11-20T04:27:39.072Z,28.27
2018-11-20T04:31:12.577Z,33.58
2018-11-20T04:34:03.755Z,28.95
2018-11-20T04:36:47.656Z,26.30
2018-11-20T04:39:34.438Z,26.90
2018-11-20T04:42:15.417Z,29.37
2018-11-20T04:45:15.686Z,31.93
2018-11-20T04:48:02.509Z,32.23
2018-11-20T04:50:59.978Z,26.68
2018-11-20T04:53:51.038Z,29.25
2018-11-20T04:56:45.213Z,26.97
2018-11-20T04:59:39.299Z,23.18
2018-11-20T05:02:36.515Z,24.20
2018-11-20T05:05:28.260Z,29.07
2018-11-20T05:08:24.346Z,28.30
2018-11-20T05:10:59.667Z,27.00
2018-11-20T05:13:46.610Z,19.37
2018-11-20T05:16:33.764Z,27.25
2018-11-20T05:19:17.149Z,25.08
2018-11-20T05:22:04.005Z,23.27
2018-11-20T05:25:07.395Z,26.90
2018-11-20T05:28:04.515Z,26.30
2018-11-20T05:30:53.245Z,24.55
2018-11-20T05:33:44.209Z,25.60
2018-11-20T05:36:44.601Z,25.20
2018-11-20T05:39:35.738Z,24.12
2018-11-20T05:42:26.956Z,26.90
2018-11-20T05:45:14.105Z,27.45
2018-11-20T05:48:20.448Z,24.87
2018-11-20T05:51:14.362Z,25.00
2018-11-20T05:54:11.452Z,22.58
2018-11-20T05:56:59.883Z,24.12
2018-11-20T05:59:47.364Z,22.82
2018-11-20T06:02:46.803Z,25.23
2018-11-20T06:05:33.605Z,24.80
2018-11-20T06:08:27.950Z,24.00
2018-11-20T06:11:16.301Z,16.93
2018-11-20T06:14:10.397Z,27.58
2018-11-20T06:17:01.352Z,22.45
2018-11-20T06:19:44.580Z,26.00
2018-11-20T06:22:35.442Z,19.92
2018-11-20T06:25:16.934Z,17.85
2018-11-20T06:28:03.647Z,23.25
2018-11-20T06:30:57.488Z,23.00
2018-11-20T06:33:44.521Z,18.75
2018-11-20T06:36:35.459Z,23.32
2018-11-20T06:39:24.861Z,21.15
2018-11-20T06:42:19.255Z,25.75
2018-11-20T06:45:04.290Z,20.27
2018-11-20T06:47:46.832Z,21.00
2018-11-20T06:50:40.930Z,19.45
2018-11-20T06:53:27.689Z,18.17
2018-11-20T06:56:14.248Z,21.10
2018-11-20T06:59:20.513Z,23.30
2018-11-20T07:02:17.430Z,23.98
2018-11-20T07:05:04.252Z,21.05
2018-11-20T07:07:51.024Z,23.62
2018-11-20T07:10:34.960Z,15.98
2018-11-20T07:13:42.422Z,23.27
2018-11-20T07:16:54.848Z,20.17
2018-11-20T07:19:36.501Z,20.55
2018-11-20T07:22:23.134Z,22.05
2018-11-20T07:25:05.150Z,20.62
2018-11-20T07:27:47.511Z,17.45
2018-11-20T07:30:34.382Z,20.30
2018-11-20T07:33:21.462Z,23.47
2018-11-20T07:36:12.383Z,19.75
2018-11-20T07:39:09.293Z,20.48
2018-11-20T07:41:57.503Z,21.77
2018-11-20T07:44:40.795Z,16.77
2018-11-20T07:47:37.661Z,18.77
2018-11-20T07:50:20.156Z,23.47
2018-11-20T07:53:08.384Z,20.45
2018-11-20T07:55:55.252Z,20.72
2018-11-20T07:58:46.204Z,17.92
2018-11-20T08:01:24.207Z,20.43
2018-11-20T08:04:17.943Z,17.10
2018-11-20T08:07:12.016Z,15.15
2018-11-20T08:09:54.186Z,18.23
2018-11-20T08:12:41.409Z,17.32
2018-11-20T08:15:28.206Z,15.70
2018-11-20T08:18:19.011Z,17.90
2018-11-20T08:21:12.898Z,15.53
2018-11-20T08:23:59.949Z,13.98
2018-11-20T08:26:51.052Z,10.90
2018-11-20T08:29:41.824Z,14.90
2018-11-20T08:32:36.033Z,12.95
2018-11-20T08:35:23.016Z,11.93
2018-11-20T08:38:09.941Z,13.18
2018-11-20T08:41:07.002Z,14.25
2018-11-20T08:44:01.061Z,12.50
2018-11-20T08:46:53.866Z,16.55
2018-11-20T08:49:42.141Z,14.10
2018-11-20T08:52:33.505Z,11.12
2018-11-20T08:55:25.626Z,12.28
2018-11-20T08:58:19.990Z,14.00
2018-11-20T09:01:23.074Z,13.13
2018-11-20T09:04:17.449Z,13.78
2018-11-20T09:06:57.017Z,11.60
2018-11-20T09:09:47.963Z,12.45
2018-11-20T09:12:36.185Z,12.10
2018-11-20T09:15:27.571Z,12.33
2018-11-20T09:18:24.915Z,11.03
2018-11-20T09:21:08.744Z,12.13
2018-11-20T09:23:55.324Z,9.88
2018-11-20T09:26:42.102Z,11.40
2018-11-20T09:29:30.413Z,7.58
2018-11-20T09:32:30.881Z,11.08
2018-11-20T09:35:18.910Z,10.53
2018-11-20T09:38:21.929Z,11.20
2018-11-20T09:41:10.022Z,11.75
2018-11-20T09:44:26.478Z,11.93
2018-11-20T09:47:21.345Z,10.70
2018-11-20T09:50:09.598Z,6.92
2018-11-20T09:53:06.702Z,9.50
2018-11-20T09:56:00.662Z,8.98
2018-11-20T09:58:54.925Z,7.28
2018-11-20T10:01:41.886Z,12.37
2018-11-20T10:04:43.042Z,10.45
2018-11-20T10:07:31.273Z,9.23
2018-11-20T10:10:15.455Z,11.70
2018-11-20T10:13:03.681Z,8.55
2018-11-20T10:16:09.801Z,7.25
2018-11-20T10:19:07.029Z,8.93
2018-11-20T10:22:07.319Z,10.05
2018-11-20T10:24:58.346Z,9.85
2018-11-20T10:27:56.442Z,7.70
2018-11-20T10:30:43.626Z,11.70
2018-11-20T10:33:33.309Z,8.35
2018-11-20T10:36:19.981Z,8.63
2018-11-20T10:39:08.213Z,10.43
2018-11-20T10:41:55.206Z,7.05
2018-11-20T10:44:56.184Z,9.90
2018-11-20T10:47:43.190Z,10.98
2018-11-20T10:50:37.025Z,9.63
2018-11-20T10:53:22.338Z,10.32
2018-11-20T10:56:22.609Z,11.15
2018-11-20T10:59:09.611Z,9.55
2018-11-20T11:01:56.279Z,11.08
2018-11-20T11:04:43.611Z,9.10
2018-11-20T11:07:49.869Z,10.10
2018-11-20T11:10:31.651Z,10.28
2018-11-20T11:13:31.766Z,7.95
2018-11-20T11:16:12.137Z,9.95
2018-11-20T11:18:59.185Z,9.48
2018-11-20T11:21:49.147Z,8.48
2018-11-20T11:24:29.668Z,11.38
2018-11-20T11:27:31.712Z,7.85
2018-11-20T11:30:20.011Z,9.45
2018-11-20T11:33:07.060Z,10.40
2018-11-20T11:35:50.593Z,8.43
2018-11-20T11:38:37.623Z,10.08
2018-11-20T11:41:31.797Z,10.68
2018-11-20T11:44:18.581Z,8.80
2018-11-20T11:47:04.507Z,10.80
2018-11-20T11:49:51.112Z,9.80
2018-11-20T11:52:48.235Z,11.20
2018-11-20T11:55:39.330Z,9.03
2018-11-20T11:58:25.941Z,12.03
2018-11-20T12:01:20.502Z,12.55
2018-11-20T12:04:10.817Z,8.40
2018-11-20T12:07:09.051Z,8.95
2018-11-20T12:10:00.255Z,10.48
2018-11-20T12:12:48.638Z,7.78
2018-11-20T12:15:35.808Z,10.45
2018-11-20T12:18:19.907Z,9.18
2018-11-20T12:21:03.682Z,11.55
2018-11-20T12:23:54.736Z,9.38
2018-11-20T12:26:43.412Z,10.20
2018-11-20T12:29:34.720Z,8.45
2018-11-20T12:32:16.979Z,11.57
2018-11-20T12:35:33.287Z,11.35
2018-11-20T12:38:17.285Z,10.75
2018-11-20T12:41:05.035Z,9.75
2018-11-20T12:44:08.565Z,10.03
2018-11-20T12:46:59.510Z,9.28
2018-11-20T12:50:02.933Z,12.47
2018-11-20T12:53:00.457Z,10.90
2018-11-20T12:55:57.340Z,12.85
2018-11-20T12:58:51.836Z,12.03
2018-11-20T13:01:55.192Z,10.10
2018-11-20T13:05:01.700Z,12.13
2018-11-20T13:07:48.740Z,11.65
2018-11-20T13:10:37.181Z,6.87
2018-11-20T13:13:34.086Z,8.48
2018-11-20T13:16:20.933Z,9.45
2018-11-20T13:19:07.797Z,10.72
2018-11-20T13:22:10.948Z,10.23
2018-11-20T13:24:59.873Z,8.85
2018-11-20T13:27:55.964Z,7.80
2018-11-20T13:30:39.264Z,7.30
2018-11-20T13:33:30.548Z,11.05
2018-11-20T13:36:17.832Z,8.50
2018-11-20T13:39:06.112Z,11.48
2018-11-20T13:41:55.984Z,8.38
2018-11-20T13:44:46.003Z,10.15
2018-11-20T13:47:36.792Z,9.38
2018-11-20T13:50:38.737Z,11.03
2018-11-20T13:53:25.782Z,13.15
2018-11-20T13:56:12.695Z,14.33
2018-11-20T13:59:06.429Z,8.40
2018-11-20T14:01:53.322Z,9.95
2018-11-20T14:04:47.838Z,8.98
2018-11-20T14:07:42.144Z,8.95
2018-11-20T14:10:29.686Z,10.48
2018-11-20T14:13:33.168Z,9.25
2018-11-20T14:16:30.736Z,11.18
2018-11-20T14:19:24.720Z,9.88
2018-11-20T14:22:11.389Z,9.25
2018-11-20T14:24:53.745Z,10.23
2018-11-20T14:27:41.977Z,12.90
2018-11-20T14:30:29.522Z,9.98
2018-11-20T14:33:09.316Z,16.02
2018-11-20T14:36:09.474Z,17.75
2018-11-20T14:39:06.454Z,13.90
2018-11-20T14:41:46.565Z,13.43
2018-11-20T14:44:33.293Z,13.65
2018-11-20T14:47:20.179Z,14.43
2018-11-20T14:50:07.203Z,12.05
2018-11-20T14:53:13.755Z,13.40
2018-11-20T14:56:00.744Z,15.58
2018-11-20T14:59:00.836Z,14.87
2018-11-20T15:01:54.951Z,15.13
2018-11-20T15:04:54.233Z,11.95
2018-11-20T15:07:45.723Z,13.00
2018-11-20T15:10:36.638Z,11.93
2018-11-20T15:13:23.706Z,13.93
2018-11-20T15:16:23.802Z,16.00
2018-11-20T15:19:18.092Z,12.43
2018-11-20T15:22:04.934Z,13.45
2018-11-20T15:25:00.373Z,17.07
2018-11-20T15:27:48.605Z,13.18
2018-11-20T15:30:51.791Z,15.43
2018-11-20T15:33:45.639Z,9.08
2018-11-20T15:36:40.980Z,14.50
2018-11-20T15:39:29.036Z,14.00
2018-11-20T15:42:15.807Z,14.85
2018-11-20T15:44:59.689Z,11.10
2018-11-20T15:48:02.784Z,14.87
2018-11-20T15:50:56.733Z,13.53
2018-11-20T15:53:43.450Z,11.80
2018-11-20T15:56:34.436Z,14.20
2018-11-20T15:59:21.344Z,12.30
2018-11-20T16:02:06.597Z,14.53
2018-11-20T16:04:55.422Z,13.03
2018-11-20T16:07:49.236Z,15.08
2018-11-20T16:10:25.409Z,15.28
2018-11-20T16:13:04.643Z,16.77
2018-11-20T16:15:51.395Z,16.15
2018-11-20T16:18:37.556Z,15.80
2018-11-20T16:21:33.477Z,12.40
2018-11-20T16:24:36.973Z,22.30
2018-11-20T16:27:37.303Z,16.87
2018-11-20T16:30:27.322Z,20.62
2018-11-20T16:33:30.689Z,17.85
2018-11-20T16:36:18.566Z,18.52
2018-11-20T16:39:04.952Z,18.62
2018-11-20T16:42:00.383Z,16.05
2018-11-20T16:44:48.624Z,15.55
2018-11-20T16:47:35.383Z,13.15
2018-11-20T16:50:15.760Z,15.20
2018-11-20T16:52:53.059Z,16.10
2018-11-20T16:55:41.410Z,14.75
2018-11-20T16:58:48.073Z,16.82
2018-11-20T17:01:51.539Z,15.40
2018-11-20T17:04:42.883Z,14.87
2018-11-20T17:07:33.676Z,16.20
2018-11-20T17:10:33.828Z,13.62
2018-11-20T17:13:24.608Z,16.37
2018-11-20T17:16:15.279Z,14.03
2018-11-20T17:19:12.344Z,14.87
2018-11-20T17:22:04.092Z,16.07
2018-11-20T17:24:51.247Z,18.92
2018-11-20T17:27:38.300Z,15.10
2018-11-20T17:30:29.443Z,12.85
2018-11-20T17:33:17.822Z,21.00
2018-11-20T17:36:04.868Z,19.05
2018-11-20T17:38:52.118Z,17.10
2018-11-20T17:41:49.265Z,19.05
2018-11-20T17:44:27.234Z,18.87
2018-11-20T17:47:08.721Z,17.60
2018-11-20T17:50:05.996Z,14.98
2018-11-20T17:52:56.882Z,19.57
2018-11-20T17:55:43.625Z,16.55
2018-11-20T17:58:46.782Z,18.00
2018-11-20T18:01:39.821Z,24.12
2018-11-20T18:04:28.121Z,17.92
2018-11-20T18:07:14.922Z,17.25
2018-11-20T18:10:12.496Z,19.42
2018-11-20T18:13:00.784Z,18.07
2018-11-20T18:15:47.836Z,18.87
2018-11-20T18:18:35.246Z,19.05
2018-11-20T18:21:42.143Z,28.25
2018-11-20T18:24:33.135Z,17.57
2018-11-20T18:27:09.820Z,16.60
2018-11-20T18:30:06.970Z,15.80
2018-11-20T18:32:52.795Z,21.20
2018-11-20T18:35:30.610Z,16.70
2018-11-20T18:38:17.976Z,18.20
2018-11-20T18:41:05.269Z,16.05
2018-11-20T18:44:08.738Z,17.75
2018-11-20T18:47:08.922Z,17.67
2018-11-20T18:49:55.689Z,21.33
2018-11-20T18:52:49.919Z,15.55
2018-11-20T18:56:20.963Z,20.52
2018-11-20T18:59:07.125Z,17.10
2018-11-20T19:01:57.814Z,12.07
2018-11-20T19:04:43.880Z,16.23
2018-11-20T19:07:28.576Z,16.82
2018-11-20T19:10:18.886Z,13.53
2018-11-20T19:13:04.821Z,14.55
2018-11-20T19:15:49.749Z,15.70
2018-11-20T19:18:46.292Z,19.10
2018-11-20T19:21:24.971Z,18.32
2018-11-20T19:24:25.266Z,14.87
2018-11-20T19:27:11.648Z,15.80
2018-11-20T19:29:51.024Z,15.95
2018-11-20T19:32:45.332Z,17.17
2018-11-20T19:35:32.767Z,14.40
2018-11-20T19:38:32.545Z,16.45
2018-11-20T19:41:09.019Z,18.20
2018-11-20T19:44:07.744Z,15.93
2018-11-20T19:47:03.823Z,17.15
2018-11-20T19:49:51.557Z,18.27
2018-11-20T19:52:30.830Z,16.80
2018-11-20T19:55:21.058Z,25.82
2018-11-20T19:58:17.983Z,17.73
2018-11-20T20:01:08.472Z,18.87
2018-11-20T20:03:43.433Z,20.15
2018-11-20T20:06:35.830Z,17.57
2018-11-20T20:09:34.635Z,16.70
2018-11-20T20:12:20.384Z,20.85
2018-11-20T20:15:08.090Z,21.60
2018-11-20T20:17:49.556Z,17.15
2018-11-20T20:20:46.654Z,15.80
2018-11-20T20:23:42.117Z,15.50
2018-11-20T20:26:28.166Z,14.95
2018-11-20T20:29:24.211Z,15.45
2018-11-20T20:32:06.141Z,17.23
2018-11-20T20:35:13.331Z,13.80
2018-11-20T20:38:00.790Z,16.00
2018-11-20T20:40:46.638Z,16.27
2018-11-20T20:43:36.987Z,16.27
2018-11-20T20:46:23.474Z,16.75
2018-11-20T20:49:10.915Z,18.35
2018-11-20T20:52:04.672Z,15.18
2018-11-20T20:54:57.929Z,17.00
2018-11-20T20:57:36.507Z,25.00
2018-11-20T21:00:40.463Z,15.68
2018-11-20T21:03:30.383Z,20.15
2018-11-20T21:06:17.852Z,15.45
2018-11-20T21:09:03.992Z,14.78
2018-11-20T21:11:43.074Z,16.57
2018-11-20T21:14:29.358Z,14.83
2018-11-20T21:17:15.620Z,16.65
2018-11-20T21:20:01.529Z,15.93
2018-11-20T21:22:58.436Z,16.12
2018-11-20T21:25:42.561Z,19.48
2018-11-20T21:28:28.642Z,14.28
2018-11-20T21:31:12.879Z,13.62
2018-11-20T21:33:49.191Z,13.58
2018-11-20T21:36:40.186Z,16.85
2018-11-20T21:39:27.201Z,11.15
2018-11-20T21:42:12.486Z,14.38
2018-11-20T21:44:58.725Z,15.95
2018-11-20T21:47:45.160Z,13.95
2018-11-20T21:50:47.939Z,18.10
2018-11-20T21:53:31.273Z,18.02
2018-11-20T21:56:24.550Z,14.80
2018-11-20T21:59:18.832Z,13.90
2018-11-20T22:02:01.868Z,15.05
2018-11-20T22:04:49.384Z,12.07
2018-11-20T22:07:32.050Z,16.73
2018-11-20T22:10:26.000Z,13.08
2018-11-20T22:13:16.580Z,13.93
2018-11-20T22:16:09.951Z,10.95
2018-11-20T22:18:56.327Z,15.90
2018-11-20T22:21:41.420Z,12.82
2018-11-20T22:24:26.932Z,15.85
2018-11-20T22:27:05.569Z,13.38
2018-11-20T22:29:51.820Z,10.53
2018-11-20T22:32:39.453Z,12.82
2018-11-20T22:35:24.348Z,14.23
2018-11-20T22:38:17.684Z,13.72
2018-11-20T22:41:10.869Z,13.15
2018-11-20T22:43:50.109Z,14.33
2018-11-20T22:46:40.270Z,13.60
2018-11-20T22:49:26.268Z,12.55
2018-11-20T22:52:16.236Z,13.62
2018-11-20T22:55:02.165Z,16.05
2018-11-20T22:57:48.560Z,13.55
2018-11-20T23:00:35.970Z,16.42
2018-11-20T23:03:38.142Z,12.65
2018-11-20T23:06:16.968Z,12.95
2018-11-20T23:08:45.268Z,13.45
2018-11-20T23:11:13.478Z,11.93
2018-11-20T23:13:41.681Z,15.72
2018-11-20T23:16:09.899Z,18.23
2018-11-20T23:18:38.100Z,18.15
2018-11-20T23:21:06.375Z,12.85
2018-11-20T23:23:34.563Z,14.05
2018-11-20T23:26:02.846Z,15.75
2018-11-20T23:28:31.061Z,16.42
2018-11-20T23:30:59.301Z,17.70
2018-11-20T23:33:27.537Z,16.75
2018-11-20T23:35:55.728Z,25.62
2018-11-20T23:38:23.918Z,17.65
2018-11-20T23:40:52.527Z,16.07
2018-11-20T23:43:20.757Z,15.50
2018-11-20T23:45:49.030Z,19.10
2018-11-20T23:48:17.253Z,14.83
2018-11-20T23:50:45.479Z,13.70
2018-11-20T23:53:13.649Z,15.48
2018-11-20T23:55:42.343Z,15.35
2018-11-20T23:58:10.573Z,15.10
